ADDS METAR Data INFO
IDs: Format: Raw Decoded Include TAF

Data at: 1924 UTC 23 Apr 2018

KCAV 231915Z AUTO 07006G14KT 10SM CLR 19/00 A3016 RMK AO2 PWINO
KCAV 231855Z AUTO 07008KT 10SM CLR 19/00 A3017 RMK AO2 PWINO
KCAV 231835Z AUTO 08009KT 10SM CLR 19/00 A3017 RMK AO2 PWINO
KCAV 231815Z AUTO 06008G16KT 10SM CLR 19/01 A3018 RMK AO2 PWINO
KCAV 231755Z AUTO 07008G14KT 10SM CLR 18/M00 A3018 RMK AO2 PWINO
KCAV 231735Z AUTO 06009KT 10SM CLR 18/01 A3019 RMK AO2 PWINO
KCAV 231715Z AUTO 07009G15KT 10SM CLR 18/00 A3020 RMK AO2 PWINO
KCAV 231655Z AUTO 07006G11KT 10SM CLR 17/M00 A3020 RMK AO2 PWINO
KCAV 231635Z AUTO 06009KT 10SM CLR 16/00 A3021 RMK AO2 PWINO
KCAV 231615Z AUTO 07008KT 10SM CLR 16/01 A3021 RMK AO2 PWINO
KCAV 231555Z AUTO VRB04KT 10SM CLR 15/01 A3022 RMK AO2 PWINO
KCAV 231535Z AUTO 09006KT 10SM CLR 15/01 A3022 RMK AO2 PWINO
KCAV 231515Z AUTO 10007KT 10SM CLR 14/M00 A3022 RMK AO2 PWINO
KCAV 231455Z AUTO 11009KT 10SM CLR 13/00 A3022 RMK AO2 PWINO
KCAV 231435Z AUTO 10009KT 10SM CLR 13/00 A3023 RMK AO2 PWINO
KCAV 231415Z AUTO 10007KT 10SM CLR 11/00 A3023 RMK AO2 PWINO
KCAV 231355Z AUTO 08008KT 10SM CLR 11/01 A3024 RMK AO2 PWINO
KCAV 231335Z AUTO 08009KT 10SM CLR 10/01 A3024 RMK AO2 PWINO
KCAV 231315Z AUTO 09007KT 10SM CLR 09/01 A3024 RMK AO2 PWINO
KCAV 231255Z AUTO 07007KT 10SM CLR 08/02 A3024 RMK AO2 PWINO
KCAV 231235Z AUTO 07006KT 10SM CLR 06/02 A3024 RMK AO2 PWINO
KCAV 231215Z AUTO 07007KT 10SM CLR 05/01 A3023 RMK AO2 PWINO
KCAV 231155Z AUTO 07006KT 10SM CLR 04/01 A3023 RMK AO2 PWINO
KCAV 231135Z AUTO 07006KT 10SM CLR 04/01 A3023 RMK AO2 PWINO
KCAV 231115Z AUTO 07005KT 10SM CLR 04/01 A3022 RMK AO2 PWINO
KCAV 231055Z AUTO 05005KT 10SM FEW095 05/02 A3022 RMK AO2 PWINO
KCAV 231035Z AUTO 04006KT 10SM BKN095 06/03 A3021 RMK AO2 PWINO
KCAV 231015Z AUTO 07006KT 10SM OVC090 07/03 A3021 RMK AO2 PWINO
KCAV 230955Z AUTO 11007KT 10SM OVC090 08/02 A3020 RMK AO2 PWINO
KCAV 230935Z AUTO 10008KT 10SM OVC090 07/03 A3021 RMK AO2 PWINO
KCAV 230915Z AUTO 10007KT 10SM OVC090 07/03 A3021 RMK AO2 PWINO
KCAV 230855Z AUTO 09009KT 10SM OVC090 07/03 A3021 RMK AO2 PWINO
KCAV 230835Z AUTO 08010KT 10SM OVC090 07/03 A3021 RMK AO2 PWINO
KCAV 230815Z AUTO 09010KT 10SM OVC090 07/03 A3021 RMK AO2 PWINO
KCAV 230755Z AUTO 08009KT 10SM OVC090 07/03 A3022 RMK AO2 PWINO
KCAV 230735Z AUTO 09010KT 10SM OVC090 06/03 A3022 RMK AO2 PWINO
KCAV 230715Z AUTO 08008KT 10SM SCT090 06/02 A3022 RMK AO2 PWINO
KCAV 230655Z AUTO 08008KT 10SM CLR 05/02 A3021 RMK AO2 PWINO
KCAV 230635Z AUTO 08009KT 10SM CLR 05/02 A3021 RMK AO2 PWINO
KCAV 230615Z AUTO 08009KT 10SM CLR 05/02 A3021 RMK AO2 PWINO
KCAV 230555Z AUTO 07009KT 10SM CLR 06/03 A3021 RMK AO2 PWINO
KCAV 230535Z AUTO 08010KT 10SM CLR 06/03 A3020 RMK AO2 PWINO
KCAV 230515Z AUTO 08009KT 10SM CLR 06/03 A3020 RMK AO2 PWINO
KCAV 230455Z AUTO 07007KT 10SM FEW032 06/03 A3020 RMK AO2 PWINO
KCAV 230435Z AUTO 07006KT 10SM SCT029 BKN034 06/03 A3021 RMK AO2 PWINO
KCAV 230415Z AUTO 07006KT 10SM FEW026 BKN034 06/03 A3021 RMK AO2 PWINO
KCAV 230355Z AUTO 09010KT 10SM FEW033 07/04 A3021 RMK AO2 PWINO
KCAV 230335Z AUTO 09008KT 10SM CLR 07/04 A3021 RMK AO2 PWINO
KCAV 230315Z AUTO 09007KT 10SM CLR 08/04 A3022 RMK AO2 PWINO
KCAV 230255Z AUTO 08008KT 10SM CLR 08/04 A3022 RMK AO2 PWINO
KCAV 230235Z AUTO 08008KT 10SM SCT036 09/04 A3021 RMK AO2 PWINO
KCAV 230215Z AUTO 08006KT 10SM SCT036 SCT042 10/04 A3021 RMK AO2 PWINO
KCAV 230155Z AUTO 08008KT 10SM FEW039 10/04 A3020 RMK AO2 PWINO
KCAV 230135Z AUTO 08008KT 10SM CLR 11/05 A3020 RMK AO2 PWINO
KCAV 230115Z AUTO 08009KT 10SM CLR 12/05 A3020 RMK AO2 PWINO
KCAV 230055Z AUTO 08008KT 10SM CLR 13/04 A3020 RMK AO2 PWINO
KCAV 230035Z AUTO 07009KT 10SM CLR 15/03 A3020 RMK AO2 PWINO
KCAV 230015Z AUTO 07009KT 10SM CLR 16/02 A3020 RMK AO2 PWINO
KCAV 222355Z AUTO 07011KT 10SM CLR 17/02 A3020 RMK AO2 PWINO
KCAV 222335Z AUTO 07011KT 10SM CLR 17/01 A3020 RMK AO2 PWINO
KCAV 222315Z AUTO 07010G15KT 10SM CLR 18/01 A3020 RMK AO2 PWINO
KCAV 222255Z AUTO 09010G18KT 10SM CLR 18/M00 A3020 RMK AO2 PWINO
KCAV 222235Z AUTO 08010KT 10SM CLR 19/00 A3021 RMK AO2 PWINO
KCAV 222215Z AUTO 08011G17KT 10SM CLR 18/M00 A3021 RMK AO2 PWINO
KCAV 222155Z AUTO 09011KT 10SM CLR 19/M00 A3021 RMK AO2 PWINO
KCAV 222135Z AUTO 08014G19KT 040V100 10SM CLR 18/00 A3021 RMK AO2 PWINO
KCAV 222115Z AUTO 08010G16KT 10SM CLR 19/01 A3022 RMK AO2 PWINO
KCAV 222035Z AUTO 10011KT 10SM CLR 18/00 A3023 RMK AO2 PWINO
KCAV 221955Z AUTO 10012G18KT 10SM CLR 18/01 A3024 RMK AO2 PWINO
KCAV 221935Z AUTO 10012G18KT 10SM CLR 17/01 A3025 RMK AO2 PWINO
KCAV 221915Z AUTO 09011KT 10SM CLR 17/01 A3026 RMK AO2 PWINO
KCAV 221855Z AUTO 10010G17KT 10SM CLR 17/01 A3026 RMK AO2 PWINO
KCAV 221835Z AUTO 08010KT 10SM CLR 17/01 A3027 RMK AO2 PWINO
KCAV 221815Z AUTO 10009G17KT 10SM CLR 16/01 A3027 RMK AO2 PWINO
KCAV 221755Z AUTO 10012G17KT 10SM CLR 16/01 A3028 RMK AO2 PWINO
KCAV 221735Z AUTO 10011G16KT 10SM CLR 15/01 A3028 RMK AO2 PWINO
KCAV 221715Z AUTO 10011G16KT 10SM CLR 15/01 A3029 RMK AO2 PWINO
KCAV 221655Z AUTO 09013G18KT 10SM CLR 14/00 A3029 RMK AO2 PWINO
KCAV 221635Z AUTO 10013KT 10SM CLR 14/M00 A3029 RMK AO2 PWINO
KCAV 221615Z AUTO 10014G20KT 10SM CLR 14/00 A3029 RMK AO2 PWINO
KCAV 221555Z AUTO 09015KT 10SM CLR 13/M00 A3029 RMK AO2 PWINO
KCAV 221535Z AUTO 10010G16KT 10SM CLR 13/00 A3030 RMK AO2 PWINO
KCAV 221515Z AUTO 10011G16KT 10SM CLR 12/M00 A3030 RMK AO2 PWINO
KCAV 221455Z AUTO 12012KT 10SM CLR 11/M01 A3030 RMK AO2 PWINO
KCAV 221435Z AUTO 10011KT 10SM CLR 11/M00 A3030 RMK AO2 PWINO
KCAV 221415Z AUTO 09010KT 10SM CLR 10/01 A3030 RMK AO2 PWINO
KCAV 221355Z AUTO 08010KT 10SM CLR 09/02 A3031 RMK AO2 PWINO
KCAV 221335Z AUTO 08009KT 10SM CLR 08/02 A3031 RMK AO2 PWINO
KCAV 221315Z AUTO 09011KT 10SM CLR 08/02 A3031 RMK AO2 PWINO
KCAV 221255Z AUTO 08010KT 10SM CLR 07/02 A3031 RMK AO2 PWINO
KCAV 221235Z AUTO 09011KT 10SM CLR 06/02 A3030 RMK AO2 PWINO
KCAV 221215Z AUTO 08010KT 10SM CLR 05/02 A3030 RMK AO2 PWINO
KCAV 221155Z AUTO 07010KT 10SM CLR 05/02 A3030 RMK AO2 PWINO
KCAV 221135Z AUTO 07009KT 10SM CLR 05/02 A3029 RMK AO2 PWINO
KCAV 221115Z AUTO 09010KT 10SM BKN110 05/02 A3029 RMK AO2 PWINO
KCAV 221055Z AUTO 09010KT 10SM BKN110 05/02 A3028 RMK AO2 PWINO
KCAV 221035Z AUTO 08009KT 10SM BKN110 05/02 A3028 RMK AO2 PWINO
KCAV 221015Z AUTO 08008KT 10SM FEW095 OVC110 05/02 A3029 RMK AO2 PWINO
KCAV 220955Z AUTO 08008KT 10SM SCT095 SCT120 05/02 A3029 RMK AO2 PWINO
KCAV 220935Z AUTO 08008KT 10SM SCT120 06/02 A3030 RMK AO2 PWINO
KCAV 220915Z AUTO 07007KT 10SM BKN120 06/02 A3029 RMK AO2 PWINO
KCAV 220855Z AUTO 08008KT 10SM BKN110 06/03 A3030 RMK AO2 PWINO
KCAV 220835Z AUTO 09008KT 10SM BKN110 06/03 A3030 RMK AO2 PWINO
KCAV 220815Z AUTO 07006KT 10SM OVC110 06/03 A3029 RMK AO2 PWINO
KCAV 220755Z AUTO 07008KT 10SM OVC110 07/03 A3028 RMK AO2 PWINO
KCAV 220735Z AUTO 07007KT 10SM OVC110 06/03 A3029 RMK AO2 PWINO